createdAt,value
2023-04-25T00:00:30.925Z,0.30
2023-04-25T00:03:01.348Z,0.30
2023-04-25T00:05:31.042Z,0.30
2023-04-25T00:08:00.402Z,0.30
2023-04-25T00:10:29.702Z,0.30
2023-04-25T00:12:59.116Z,0.30
2023-04-25T00:15:27.902Z,0.30
2023-04-25T00:17:56.732Z,0.30
2023-04-25T00:20:26.434Z,0.30
2023-04-25T00:22:55.168Z,0.30
2023-04-25T00:25:24.002Z,0.30
2023-04-25T00:27:52.783Z,0.30
2023-04-25T00:30:21.672Z,0.30
2023-04-25T00:32:52.233Z,0.30
2023-04-25T00:35:21.429Z,0.30
2023-04-25T00:37:50.628Z,0.30
2023-04-25T00:40:19.734Z,0.30
2023-04-25T00:42:49.208Z,0.30
2023-04-25T00:45:19.530Z,0.30
2023-04-25T00:47:51.831Z,0.30
2023-04-25T00:50:20.785Z,0.30
2023-04-25T00:52:49.781Z,0.30
2023-04-25T00:55:18.666Z,0.30
2023-04-25T00:57:48.449Z,0.30
2023-04-25T01:00:18.798Z,0.30
2023-04-25T01:02:48.761Z,0.30
2023-04-25T01:05:17.865Z,0.30
2023-04-25T01:07:47.460Z,0.30
2023-04-25T01:10:16.975Z,0.30
2023-04-25T01:12:45.888Z,0.30
2023-04-25T01:15:15.398Z,0.30
2023-04-25T01:17:45.686Z,0.30
2023-04-25T01:20:16.018Z,0.30
2023-04-25T01:22:45.828Z,0.30
2023-04-25T01:25:14.998Z,0.30
2023-04-25T01:27:44.245Z,0.30
2023-04-25T01:30:13.441Z,0.30
2023-04-25T01:32:44.859Z,0.30
2023-04-25T01:35:14.314Z,0.30
2023-04-25T01:37:44.854Z,0.35
2023-04-25T01:40:15.228Z,0.32
2023-04-25T01:42:45.604Z,0.40
2023-04-25T01:45:14.980Z,0.30
2023-04-25T01:47:45.344Z,0.30
2023-04-25T01:50:14.751Z,0.30
2023-04-25T01:52:43.797Z,0.40
2023-04-25T01:55:13.584Z,0.30
2023-04-25T01:57:51.829Z,0.30
2023-04-25T02:00:26.176Z,0.30
2023-04-25T02:02:55.376Z,0.30
2023-04-25T02:05:39.756Z,0.30
2023-04-25T02:08:11.333Z,0.30
2023-04-25T02:10:40.392Z,0.30
2023-04-25T02:13:32.258Z,0.30
2023-04-25T02:16:24.209Z,0.30
2023-04-25T02:18:55.614Z,0.30
2023-04-25T02:21:24.403Z,0.30
2023-04-25T02:23:53.750Z,0.30
2023-04-25T02:26:22.736Z,0.22
2023-04-25T02:28:52.138Z,0.30
2023-04-25T02:31:21.894Z,0.30
2023-04-25T02:33:51.124Z,0.30
2023-04-25T02:36:20.088Z,0.30
2023-04-25T02:38:51.769Z,0.30
2023-04-25T02:41:23.497Z,0.20
2023-04-25T02:43:52.631Z,0.30
2023-04-25T02:46:32.221Z,0.30
2023-04-25T02:49:08.783Z,0.30
2023-04-25T02:51:37.927Z,0.30
2023-04-25T02:54:08.060Z,0.20
2023-04-25T02:56:41.788Z,0.20
2023-04-25T02:59:16.322Z,0.30
2023-04-25T03:01:47.047Z,0.25
2023-04-25T03:04:16.586Z,0.20
2023-04-25T03:06:45.811Z,0.20
2023-04-25T03:09:14.893Z,0.20
2023-04-25T03:11:43.927Z,0.30
2023-04-25T03:14:13.476Z,0.20
2023-04-25T03:16:42.459Z,0.20
2023-04-25T03:19:12.294Z,0.20
2023-04-25T03:21:41.201Z,0.20
2023-04-25T03:24:12.521Z,0.30
2023-04-25T03:26:41.384Z,0.20
2023-04-25T03:29:10.954Z,0.25
2023-04-25T03:31:41.547Z,0.20
2023-04-25T03:34:11.597Z,0.20
2023-04-25T03:36:41.704Z,0.20
2023-04-25T03:39:11.961Z,0.30
2023-04-25T03:41:43.290Z,0.22
2023-04-25T03:44:17.096Z,0.20
2023-04-25T03:46:46.789Z,0.20
2023-04-25T03:49:17.877Z,0.20
2023-04-25T03:52:15.712Z,0.20
2023-04-25T03:54:48.183Z,0.20
2023-04-25T03:57:21.134Z,0.20
2023-04-25T03:59:50.074Z,0.20
2023-04-25T04:02:20.401Z,0.20
2023-04-25T04:04:50.470Z,0.30
2023-04-25T04:07:19.724Z,0.20
2023-04-25T04:09:52.735Z,0.20
2023-04-25T04:12:27.629Z,0.20
2023-04-25T04:14:56.507Z,0.25
2023-04-25T04:17:27.036Z,0.20
2023-04-25T04:19:56.610Z,0.20
2023-04-25T04:22:26.492Z,0.28
2023-04-25T04:24:59.279Z,0.20
2023-04-25T04:27:53.341Z,0.30
2023-04-25T04:30:32.573Z,0.25
2023-04-25T04:33:07.167Z,0.20
2023-04-25T04:35:36.926Z,0.20
2023-04-25T04:38:06.562Z,0.30
2023-04-25T04:40:36.949Z,0.20
2023-04-25T04:43:27.175Z,0.20
2023-04-25T04:46:05.746Z,0.20
2023-04-25T04:48:44.277Z,0.30
2023-04-25T04:51:32.739Z,0.20
2023-04-25T04:54:31.508Z,0.20
2023-04-25T04:57:18.278Z,0.28
2023-04-25T05:00:01.096Z,0.20
2023-04-25T05:02:51.605Z,0.15
2023-04-25T05:05:32.262Z,0.25
2023-04-25T05:08:21.610Z,0.20
2023-04-25T05:11:11.720Z,0.20
2023-04-25T05:14:00.929Z,0.20
2023-04-25T05:16:48.500Z,0.20
2023-04-25T05:19:41.517Z,0.20
2023-04-25T05:22:34.523Z,0.20
2023-04-25T05:25:16.591Z,0.20
2023-04-25T05:28:07.418Z,0.20
2023-04-25T05:30:53.138Z,0.20
2023-04-25T05:33:28.845Z,0.20
2023-04-25T05:35:58.020Z,0.20
2023-04-25T05:38:28.717Z,0.20
2023-04-25T05:41:33.137Z,0.10
2023-04-25T05:44:14.889Z,0.20
2023-04-25T05:46:52.108Z,0.20
2023-04-25T05:52:19.329Z,0.10
2023-04-25T05:54:59.186Z,0.20
2023-04-25T05:57:29.707Z,0.20
2023-04-25T05:59:59.048Z,0.20
2023-04-25T06:02:44.368Z,0.20
2023-04-25T06:05:16.914Z,0.20
2023-04-25T06:07:48.925Z,0.10
2023-04-25T06:10:18.331Z,0.20
2023-04-25T06:12:48.780Z,0.20
2023-04-25T06:17:52.198Z,0.20
2023-04-25T06:20:24.590Z,0.20
2023-04-25T06:22:54.673Z,0.20
2023-04-25T06:25:30.533Z,0.20
2023-04-25T06:27:59.348Z,0.28
2023-04-25T06:30:29.722Z,0.20
2023-04-25T06:33:05.721Z,0.30
2023-04-25T06:35:35.638Z,0.30
2023-04-25T06:38:05.306Z,0.30
2023-04-25T06:40:34.642Z,0.30
2023-04-25T06:43:03.998Z,0.30
2023-04-25T06:45:56.569Z,0.20
2023-04-25T06:48:29.809Z,0.20
2023-04-25T06:51:00.865Z,0.20
2023-04-25T06:53:30.990Z,0.30
2023-04-25T06:56:05.610Z,0.30
2023-04-25T06:58:48.027Z,0.30
2023-04-25T07:01:30.518Z,0.22
2023-04-25T07:04:01.400Z,0.20
2023-04-25T07:06:33.169Z,0.20
2023-04-25T07:09:02.232Z,0.20
2023-04-25T07:11:31.367Z,0.30
2023-04-25T07:14:01.251Z,0.20
2023-04-25T07:16:30.989Z,0.30
2023-04-25T07:19:04.111Z,0.30
2023-04-25T07:21:33.367Z,0.30
2023-04-25T07:24:04.765Z,0.30
2023-04-25T07:26:37.313Z,0.28
2023-04-25T07:29:19.293Z,0.30
2023-04-25T07:31:48.206Z,0.30
2023-04-25T07:34:17.394Z,0.30
2023-04-25T07:36:47.872Z,0.30
2023-04-25T07:39:16.779Z,0.30
2023-04-25T07:41:46.490Z,0.30
2023-04-25T07:44:22.584Z,0.30
2023-04-25T07:46:51.937Z,0.30
2023-04-25T07:49:21.769Z,0.30
2023-04-25T07:51:51.756Z,0.30
2023-04-25T07:54:23.391Z,0.30
2023-04-25T07:57:03.924Z,0.30
2023-04-25T07:59:34.472Z,0.30
2023-04-25T08:02:06.347Z,0.30
2023-04-25T08:04:37.251Z,0.30
2023-04-25T08:07:09.922Z,0.30
2023-04-25T08:09:50.589Z,0.30
2023-04-25T08:12:26.896Z,0.32
2023-04-25T08:14:56.245Z,0.30
2023-04-25T08:17:27.818Z,0.30
2023-04-25T08:19:57.489Z,0.30
2023-04-25T08:22:36.178Z,0.30
2023-04-25T08:25:25.758Z,0.30
2023-04-25T08:27:54.908Z,0.30
2023-04-25T08:30:25.048Z,0.30
2023-04-25T08:32:54.116Z,0.30
2023-04-25T08:35:48.373Z,0.40
2023-04-25T08:38:19.151Z,0.30
2023-04-25T08:40:55.508Z,0.30
2023-04-25T08:43:27.185Z,0.30
2023-04-25T08:46:02.938Z,0.30
2023-04-25T08:48:48.997Z,0.30
2023-04-25T08:51:28.034Z,0.30
2023-04-25T08:54:28.026Z,0.30
2023-04-25T08:57:05.777Z,0.30
2023-04-25T08:59:37.910Z,0.30
2023-04-25T09:02:10.970Z,0.32
2023-04-25T09:04:41.270Z,0.30
2023-04-25T09:07:10.072Z,0.30
2023-04-25T09:09:39.332Z,0.30
2023-04-25T09:12:08.421Z,0.30
2023-04-25T09:14:38.054Z,0.30
2023-04-25T09:17:26.408Z,0.30
2023-04-25T09:20:06.789Z,0.30
2023-04-25T09:22:37.832Z,0.30
2023-04-25T09:25:12.102Z,0.30
2023-04-25T09:30:36.738Z,0.30
2023-04-25T09:33:14.134Z,0.30
2023-04-25T09:35:54.412Z,0.30
2023-04-25T09:38:32.918Z,0.30
2023-04-25T09:41:13.834Z,0.30
2023-04-25T09:43:48.539Z,0.30
2023-04-25T09:46:20.839Z,0.30
2023-04-25T09:48:55.586Z,0.30
2023-04-25T09:51:34.732Z,0.30
2023-04-25T09:54:06.330Z,0.30
2023-04-25T09:56:50.286Z,0.30
2023-04-25T09:59:23.314Z,0.30
2023-04-25T10:01:56.416Z,0.30
2023-04-25T10:04:37.276Z,0.30
2023-04-25T10:07:10.517Z,0.30
2023-04-25T10:09:41.428Z,0.30
2023-04-25T10:12:10.743Z,0.30
2023-04-25T10:14:40.530Z,0.30
2023-04-25T10:17:12.053Z,0.30
2023-04-25T10:19:41.588Z,0.30
2023-04-25T10:22:19.673Z,0.30
2023-04-25T10:24:49.020Z,0.30
2023-04-25T10:27:18.415Z,0.30
2023-04-25T10:30:01.636Z,0.30
2023-04-25T10:32:36.470Z,0.30
2023-04-25T10:35:32.029Z,0.30
2023-04-25T10:38:06.504Z,0.30
2023-04-25T10:40:35.616Z,0.30
2023-04-25T10:43:41.640Z,0.30
2023-04-25T10:46:24.211Z,0.30
2023-04-25T10:48:58.044Z,0.30
2023-04-25T10:51:47.388Z,0.30
2023-04-25T10:54:27.293Z,0.30
2023-04-25T10:56:56.252Z,0.30
2023-04-25T10:59:27.172Z,0.30
2023-04-25T11:01:58.177Z,0.30
2023-04-25T11:04:31.617Z,0.30
2023-04-25T11:07:09.913Z,0.30
2023-04-25T11:09:42.054Z,0.30
2023-04-25T11:12:13.262Z,0.30
2023-04-25T11:14:42.331Z,0.30
2023-04-25T11:17:12.917Z,0.30
2023-04-25T11:19:42.930Z,0.30
2023-04-25T11:22:12.655Z,0.30
2023-04-25T11:24:41.854Z,0.30
2023-04-25T11:27:11.012Z,0.30
2023-04-25T11:29:39.840Z,0.30
2023-04-25T11:32:09.475Z,0.30
2023-04-25T11:34:38.450Z,0.30
2023-04-25T11:37:08.118Z,0.30
2023-04-25T11:39:37.328Z,0.30
2023-04-25T11:42:12.099Z,0.30
2023-04-25T11:44:43.233Z,0.30
2023-04-25T11:47:12.104Z,0.30
2023-04-25T11:49:40.929Z,0.30
2023-04-25T11:52:09.877Z,0.30
2023-04-25T11:54:39.738Z,0.30
2023-04-25T11:57:08.640Z,0.30
2023-04-25T11:59:37.549Z,0.30
2023-04-25T12:02:08.572Z,0.30
2023-04-25T12:04:37.957Z,0.30
2023-04-25T12:07:12.058Z,0.30
2023-04-25T12:09:42.233Z,0.30
2023-04-25T12:12:11.931Z,0.30
2023-04-25T12:14:40.796Z,0.30
2023-04-25T12:17:11.367Z,0.30
2023-04-25T12:19:45.367Z,0.30
2023-04-25T12:22:33.516Z,0.32
2023-04-25T12:25:02.413Z,0.30
2023-04-25T12:27:35.676Z,0.30
2023-04-25T12:30:05.396Z,0.30
2023-04-25T12:32:37.479Z,0.30
2023-04-25T12:35:08.150Z,0.30
2023-04-25T12:37:37.038Z,0.30
2023-04-25T12:40:08.173Z,0.30
2023-04-25T12:42:37.207Z,0.30
2023-04-25T12:45:06.366Z,0.30
2023-04-25T12:47:36.840Z,0.30
2023-04-25T12:50:10.239Z,0.30
2023-04-25T12:52:39.744Z,0.30
2023-04-25T12:55:09.171Z,0.30
2023-04-25T12:57:38.050Z,0.30
2023-04-25T13:00:11.050Z,0.30
2023-04-25T13:02:40.668Z,0.30
2023-04-25T13:05:11.189Z,0.30
2023-04-25T13:07:40.154Z,0.30
2023-04-25T13:10:09.436Z,0.20
2023-04-25T13:12:38.303Z,0.30
2023-04-25T13:15:08.682Z,0.30
2023-04-25T13:17:37.848Z,0.30
2023-04-25T13:20:10.279Z,0.30
2023-04-25T13:22:40.900Z,0.30
2023-04-25T13:25:10.507Z,0.30
2023-04-25T13:27:41.424Z,0.30
2023-04-25T13:30:10.609Z,0.30
2023-04-25T13:32:40.200Z,0.30
2023-04-25T13:35:13.993Z,0.30
2023-04-25T13:37:42.919Z,0.30
2023-04-25T13:40:12.887Z,0.30
2023-04-25T13:42:42.241Z,0.30
2023-04-25T13:45:11.837Z,0.30
2023-04-25T13:47:40.688Z,0.30
2023-04-25T13:50:10.082Z,0.30
2023-04-25T13:52:39.621Z,0.30
2023-04-25T13:55:10.031Z,0.30
2023-04-25T13:57:41.132Z,0.30
2023-04-25T14:00:12.364Z,0.30
2023-04-25T14:02:41.601Z,0.30
2023-04-25T14:05:10.860Z,0.30
2023-04-25T14:07:39.770Z,0.30
2023-04-25T14:10:09.211Z,0.30
2023-04-25T14:12:38.102Z,0.30
2023-04-25T14:15:07.426Z,0.30
2023-04-25T14:17:36.323Z,0.30
2023-04-25T14:20:07.391Z,0.30
2023-04-25T14:22:36.463Z,0.30
2023-04-25T14:25:05.822Z,0.30
2023-04-25T14:27:34.644Z,0.30
2023-04-25T14:30:03.463Z,0.30
2023-04-25T14:32:33.727Z,0.30
2023-04-25T14:35:02.881Z,0.30
2023-04-25T14:37:32.649Z,0.30
2023-04-25T14:40:01.420Z,0.30
2023-04-25T14:42:33.562Z,0.30
2023-04-25T14:45:02.570Z,0.30
2023-04-25T14:47:35.330Z,0.30
2023-04-25T14:50:06.102Z,0.30
2023-04-25T14:52:34.949Z,0.30
2023-04-25T14:55:06.871Z,0.30
2023-04-25T14:57:36.539Z,0.30
2023-04-25T15:00:09.095Z,0.40
2023-04-25T15:02:38.960Z,0.30
2023-04-25T15:05:08.732Z,0.30
2023-04-25T15:07:37.635Z,0.30
2023-04-25T15:10:07.786Z,0.30
2023-04-25T15:12:36.792Z,0.30
2023-04-25T15:15:07.252Z,0.30
2023-04-25T15:17:40.135Z,0.30
2023-04-25T15:20:14.608Z,0.30
2023-04-25T15:22:45.263Z,0.30
2023-04-25T15:25:14.114Z,0.30
2023-04-25T15:27:45.259Z,0.30
2023-04-25T15:30:16.912Z,0.30
2023-04-25T15:32:46.922Z,0.30
2023-04-25T15:35:19.237Z,0.30
2023-04-25T15:37:48.012Z,0.30
2023-04-25T15:40:18.094Z,0.30
2023-04-25T15:42:48.582Z,0.30
2023-04-25T15:45:18.422Z,0.30
2023-04-25T15:47:48.317Z,0.30
2023-04-25T15:50:17.243Z,0.30
2023-04-25T15:52:46.269Z,0.32
2023-04-25T15:55:15.735Z,0.30
2023-04-25T15:57:44.764Z,0.30
2023-04-25T16:00:16.203Z,0.30
2023-04-25T16:02:49.004Z,0.40
2023-04-25T16:05:18.923Z,0.38
2023-04-25T16:07:48.888Z,0.30
2023-04-25T16:10:22.028Z,0.30
2023-04-25T16:12:51.989Z,0.30
2023-04-25T16:15:20.958Z,0.40
2023-04-25T16:17:49.909Z,0.30
2023-04-25T16:20:18.950Z,0.30
2023-04-25T16:22:48.166Z,0.30
2023-04-25T16:25:16.958Z,0.30
2023-04-25T16:27:45.681Z,0.35
2023-04-25T16:30:15.082Z,0.40
2023-04-25T16:32:45.570Z,0.35
2023-04-25T16:35:14.783Z,0.30
2023-04-25T16:37:43.682Z,0.30
2023-04-25T16:40:13.354Z,0.30
2023-04-25T16:42:42.140Z,0.30
2023-04-25T16:45:11.715Z,0.30
2023-04-25T16:47:40.563Z,0.30
2023-04-25T16:50:09.931Z,0.30
2023-04-25T16:52:38.744Z,0.40
2023-04-25T16:55:08.787Z,0.30
2023-04-25T16:57:38.266Z,0.30
2023-04-25T17:00:10.605Z,0.30
2023-04-25T17:02:39.785Z,0.30
2023-04-25T17:05:10.202Z,0.30
2023-04-25T17:07:39.616Z,0.30
2023-04-25T17:10:09.757Z,0.30
2023-04-25T17:12:39.212Z,0.30
2023-04-25T17:15:08.518Z,0.30
2023-04-25T17:17:37.534Z,0.30
2023-04-25T17:20:07.701Z,0.30
2023-04-25T17:22:40.559Z,0.30
2023-04-25T17:25:10.321Z,0.30
2023-04-25T17:27:39.172Z,0.30
2023-04-25T17:30:09.189Z,0.30
2023-04-25T17:32:38.147Z,0.30
2023-04-25T17:35:07.343Z,0.30
2023-04-25T17:37:36.507Z,0.30
2023-04-25T17:40:07.715Z,0.30
2023-04-25T17:42:36.542Z,0.30
2023-04-25T17:45:05.939Z,0.40
2023-04-25T17:47:35.085Z,0.30
2023-04-25T17:50:05.302Z,0.30
2023-04-25T17:52:34.167Z,0.30
2023-04-25T17:55:03.251Z,0.30
2023-04-25T17:57:32.413Z,0.30
2023-04-25T18:00:01.592Z,0.30
2023-04-25T18:02:43.055Z,0.30
2023-04-25T18:05:12.382Z,0.30
2023-04-25T18:07:42.236Z,0.30
2023-04-25T18:10:12.459Z,0.32
2023-04-25T18:12:41.404Z,0.30
2023-04-25T18:15:11.155Z,0.30
2023-04-25T18:17:43.538Z,0.30
2023-04-25T18:20:17.889Z,0.40
2023-04-25T18:22:47.547Z,0.30
2023-04-25T18:25:16.356Z,0.40
2023-04-25T18:27:46.358Z,0.30
2023-04-25T18:30:15.383Z,0.30
2023-04-25T18:32:44.402Z,0.30
2023-04-25T18:35:13.766Z,0.30
2023-04-25T18:37:42.946Z,0.40
2023-04-25T18:40:14.391Z,0.40
2023-04-25T18:42:43.801Z,0.40
2023-04-25T18:45:13.027Z,0.38
2023-04-25T18:47:41.938Z,0.40
2023-04-25T18:50:11.227Z,0.32
2023-04-25T18:52:40.190Z,0.30
2023-04-25T18:55:09.823Z,0.30
2023-04-25T18:57:39.596Z,0.32
2023-04-25T19:00:10.009Z,0.30
2023-04-25T19:02:39.530Z,0.35
2023-04-25T19:05:09.206Z,0.40
2023-04-25T19:07:40.832Z,0.30
2023-04-25T19:10:10.119Z,0.40
2023-04-25T19:12:38.858Z,0.30
2023-04-25T19:15:08.405Z,0.30
2023-04-25T19:17:37.842Z,0.30
2023-04-25T19:20:07.544Z,0.30
2023-04-25T19:22:36.547Z,0.30
2023-04-25T19:25:10.460Z,0.40
2023-04-25T19:27:40.372Z,0.30
2023-04-25T19:30:09.830Z,0.30
2023-04-25T19:32:39.949Z,0.30
2023-04-25T19:35:11.618Z,0.30
2023-04-25T19:37:46.753Z,0.32
2023-04-25T19:40:18.000Z,0.40
2023-04-25T19:42:48.244Z,0.30
2023-04-25T19:45:17.161Z,0.30
2023-04-25T19:47:46.122Z,0.40
2023-04-25T19:50:14.987Z,0.40
2023-04-25T19:52:44.136Z,0.40
2023-04-25T19:55:12.953Z,0.30
2023-04-25T19:57:41.987Z,0.40
2023-04-25T20:00:15.877Z,0.40
2023-04-25T20:02:46.672Z,0.40
2023-04-25T20:05:18.085Z,0.40
2023-04-25T20:07:46.904Z,0.30
2023-04-25T20:10:17.052Z,0.30
2023-04-25T20:12:46.275Z,0.40
2023-04-25T20:15:15.147Z,0.40
2023-04-25T20:17:43.984Z,0.30
2023-04-25T20:20:13.330Z,0.40
2023-04-25T20:22:42.188Z,0.30
2023-04-25T20:25:12.675Z,0.40
2023-04-25T20:27:41.506Z,0.30
2023-04-25T20:30:12.518Z,0.40
2023-04-25T20:32:41.557Z,0.30
2023-04-25T20:35:12.054Z,0.40
2023-04-25T20:37:44.127Z,0.30
2023-04-25T20:40:13.213Z,0.30
2023-04-25T20:42:42.197Z,0.30
2023-04-25T20:45:14.088Z,0.40
2023-04-25T20:47:44.998Z,0.30
2023-04-25T20:50:13.998Z,0.30
2023-04-25T20:52:43.790Z,0.40
2023-04-25T20:55:12.686Z,0.40
2023-04-25T20:57:41.741Z,0.30
2023-04-25T21:00:19.268Z,0.38
2023-04-25T21:02:48.653Z,0.30
2023-04-25T21:05:17.857Z,0.40
2023-04-25T21:07:47.388Z,0.40
2023-04-25T21:10:17.881Z,0.30
2023-04-25T21:12:48.342Z,0.30
2023-04-25T21:15:18.618Z,0.40
2023-04-25T21:17:48.282Z,0.30
2023-04-25T21:20:21.311Z,0.30
2023-04-25T21:22:54.171Z,0.40
2023-04-25T21:25:29.532Z,0.40
2023-04-25T21:27:59.535Z,0.30
2023-04-25T21:30:28.574Z,0.30
2023-04-25T21:32:57.611Z,0.30
2023-04-25T21:35:26.648Z,0.30
2023-04-25T21:37:55.537Z,0.30
2023-04-25T21:40:24.728Z,0.38
2023-04-25T21:42:53.897Z,0.40
2023-04-25T21:45:22.948Z,0.30
2023-04-25T21:47:51.875Z,0.40
2023-04-25T21:50:21.390Z,0.30
2023-04-25T21:52:50.350Z,0.30
2023-04-25T21:55:20.324Z,0.40
2023-04-25T21:57:49.546Z,0.30
2023-04-25T22:00:25.290Z,0.32
2023-04-25T22:02:59.394Z,0.40
2023-04-25T22:05:29.975Z,0.35
2023-04-25T22:07:58.877Z,0.40
2023-04-25T22:10:28.471Z,0.30
2023-04-25T22:12:57.460Z,0.30
2023-04-25T22:15:27.062Z,0.40
2023-04-25T22:17:55.871Z,0.40
2023-04-25T22:20:26.874Z,0.40
2023-04-25T22:22:59.155Z,0.40
2023-04-25T22:25:28.042Z,0.30
2023-04-25T22:27:57.860Z,0.30
2023-04-25T22:30:26.920Z,0.38
2023-04-25T22:32:57.037Z,0.30
2023-04-25T22:35:26.390Z,0.40
2023-04-25T22:37:55.291Z,0.40
2023-04-25T22:40:24.681Z,0.40
2023-04-25T22:42:53.543Z,0.30
2023-04-25T22:45:22.416Z,0.32
2023-04-25T22:47:51.264Z,0.40
2023-04-25T22:50:20.837Z,0.40
2023-04-25T22:52:49.756Z,0.40
2023-04-25T22:55:18.646Z,0.40
2023-04-25T22:57:48.936Z,0.40
2023-04-25T23:00:22.507Z,0.40
2023-04-25T23:02:51.989Z,0.40
2023-04-25T23:05:20.927Z,0.32
2023-04-25T23:07:50.152Z,0.30
2023-04-25T23:10:20.090Z,0.30
2023-04-25T23:12:49.354Z,0.30
2023-04-25T23:15:18.535Z,0.32
2023-04-25T23:17:47.518Z,0.40
2023-04-25T23:20:16.416Z,0.40
2023-04-25T23:22:45.563Z,0.30
2023-04-25T23:25:14.514Z,0.40
2023-04-25T23:27:43.945Z,0.32
2023-04-25T23:30:13.156Z,0.40
2023-04-25T23:32:43.245Z,0.40
2023-04-25T23:35:12.652Z,0.30
2023-04-25T23:37:41.852Z,0.40
2023-04-25T23:40:11.420Z,0.40
2023-04-25T23:42:42.849Z,0.38
2023-04-25T23:45:11.999Z,0.40
2023-04-25T23:47:40.908Z,0.40
2023-04-25T23:50:10.108Z,0.40
2023-04-25T23:52:41.509Z,0.40
2023-04-25T23:55:10.456Z,0.30
2023-04-25T23:57:39.475Z,0.40
